createdAt,value
2023-05-19T00:01:33.301Z,102813.97
2023-05-19T00:04:02.820Z,102798.78
2023-05-19T00:06:32.588Z,102819.78
2023-05-19T00:09:03.096Z,102815.25
2023-05-19T00:11:31.390Z,102823.41
2023-05-19T00:14:00.740Z,102824.31
2023-05-19T00:16:30.936Z,102801.63
2023-05-19T00:19:00.142Z,102827.00
2023-05-19T00:21:28.271Z,102826.16
2023-05-19T00:23:56.326Z,102823.72
2023-05-19T00:26:24.458Z,102807.09
2023-05-19T00:28:52.252Z,102824.38
2023-05-19T00:31:20.266Z,102808.44
2023-05-19T00:33:49.316Z,102812.13
2023-05-19T00:36:17.099Z,102807.38
2023-05-19T00:38:44.766Z,102811.81
2023-05-19T00:41:12.822Z,102812.53
2023-05-19T00:43:40.475Z,102785.72
2023-05-19T00:46:08.264Z,102811.09
2023-05-19T00:48:35.979Z,102799.00
2023-05-19T00:51:06.614Z,102804.88
2023-05-19T00:53:35.728Z,102810.59
2023-05-19T00:56:04.451Z,102808.50
2023-05-19T00:58:32.714Z,102800.75
2023-05-19T01:01:03.651Z,102801.22
2023-05-19T01:03:35.027Z,102806.78
2023-05-19T01:06:05.886Z,102808.69
2023-05-19T01:08:34.208Z,102799.78
2023-05-19T01:11:02.017Z,102801.28
2023-05-19T01:13:30.298Z,102783.44
2023-05-19T01:16:02.654Z,102790.44
2023-05-19T01:18:40.304Z,102784.91
2023-05-19T01:21:44.456Z,102808.25
2023-05-19T01:24:32.370Z,102802.28
2023-05-19T01:27:28.745Z,102781.94
2023-05-19T01:30:34.810Z,102785.00
2023-05-19T01:33:06.621Z,102793.50
2023-05-19T01:35:36.437Z,102797.63
2023-05-19T01:38:06.178Z,102814.03
2023-05-19T01:40:34.667Z,102787.16
2023-05-19T01:43:03.213Z,102806.53
2023-05-19T01:45:34.117Z,102806.00
2023-05-19T01:48:04.403Z,102791.63
2023-05-19T01:50:34.944Z,102800.56
2023-05-19T01:53:02.951Z,102807.34
2023-05-19T01:55:30.889Z,102800.56
2023-05-19T01:58:07.916Z,102805.66
2023-05-19T02:00:50.452Z,102803.06
2023-05-19T02:03:30.696Z,102820.03
2023-05-19T02:06:06.843Z,102795.81
2023-05-19T02:08:42.505Z,102801.22
2023-05-19T02:11:15.906Z,102788.50
2023-05-19T02:13:46.330Z,102785.28
2023-05-19T02:16:17.534Z,102810.25
2023-05-19T02:18:48.065Z,102804.53
2023-05-19T02:21:16.119Z,102806.19
2023-05-19T02:23:43.819Z,102795.34
2023-05-19T02:26:11.458Z,102793.69
2023-05-19T02:28:39.128Z,102787.72
2023-05-19T02:31:08.951Z,102790.88
2023-05-19T02:33:38.008Z,102791.09
2023-05-19T02:36:06.517Z,102777.44
2023-05-19T02:38:34.184Z,102783.53
2023-05-19T02:41:01.834Z,102768.63
2023-05-19T02:43:30.595Z,102784.63
2023-05-19T02:45:58.388Z,102760.28
2023-05-19T02:48:26.101Z,102780.31
2023-05-19T02:50:55.157Z,102782.28
2023-05-19T02:53:22.798Z,102771.81
2023-05-19T02:55:50.499Z,102778.78
2023-05-19T02:58:18.679Z,102780.53
2023-05-19T03:00:46.376Z,102774.75
2023-05-19T03:03:15.057Z,102774.81
2023-05-19T03:05:42.923Z,102784.44
2023-05-19T03:08:11.990Z,102773.31
2023-05-19T03:10:39.721Z,102767.31
2023-05-19T03:13:07.410Z,102768.78
2023-05-19T03:15:36.545Z,102771.81
2023-05-19T03:18:04.364Z,102756.72
2023-05-19T03:20:32.251Z,102767.56
2023-05-19T03:23:00.016Z,102761.75
2023-05-19T03:25:30.027Z,102753.22
2023-05-19T03:27:57.732Z,102754.94
2023-05-19T03:30:25.399Z,102743.13
2023-05-19T03:32:53.276Z,102750.91
2023-05-19T03:35:21.231Z,102747.41
2023-05-19T03:37:48.938Z,102751.00
2023-05-19T03:40:18.820Z,102732.06
2023-05-19T03:42:47.846Z,102760.84
2023-05-19T03:45:15.673Z,102751.38
2023-05-19T03:47:43.419Z,102752.22
2023-05-19T03:50:11.736Z,102753.31
2023-05-19T03:52:39.774Z,102751.22
2023-05-19T03:55:08.650Z,102755.66
2023-05-19T03:57:36.352Z,102755.50
2023-05-19T04:00:07.051Z,102759.88
2023-05-19T04:02:34.888Z,102759.53
2023-05-19T04:05:04.870Z,102776.41
2023-05-19T04:07:32.624Z,102773.25
2023-05-19T04:10:00.569Z,102785.75
2023-05-19T04:12:28.261Z,102764.56
2023-05-19T04:14:55.968Z,102779.66
2023-05-19T04:17:26.385Z,102771.06
2023-05-19T04:19:54.356Z,102777.31
2023-05-19T04:22:22.021Z,102781.75
2023-05-19T04:24:50.583Z,102770.38
2023-05-19T04:27:18.349Z,102776.00
2023-05-19T04:29:48.295Z,102781.44
2023-05-19T04:32:17.645Z,102770.16
2023-05-19T04:34:46.970Z,102777.25
2023-05-19T04:37:16.147Z,102774.66
2023-05-19T04:39:45.342Z,102752.63
2023-05-19T04:42:13.321Z,102763.19
2023-05-19T04:44:41.062Z,102772.91
2023-05-19T04:47:09.190Z,102775.59
2023-05-19T04:49:39.529Z,102752.66
2023-05-19T04:52:10.912Z,102773.56
2023-05-19T04:54:39.716Z,102774.44
2023-05-19T04:57:07.776Z,102771.00
2023-05-19T04:59:35.433Z,102776.47
2023-05-19T05:02:04.249Z,102772.91
2023-05-19T05:04:32.475Z,102768.38
2023-05-19T05:07:00.182Z,102783.34
2023-05-19T05:09:29.285Z,102777.78
2023-05-19T05:11:57.473Z,102782.97
2023-05-19T05:14:25.728Z,102768.25
2023-05-19T05:16:54.146Z,102765.28
2023-05-19T05:19:23.116Z,102751.63
2023-05-19T05:21:52.131Z,102759.22
2023-05-19T05:24:20.546Z,102752.22
2023-05-19T05:26:50.104Z,102764.53
2023-05-19T05:29:17.780Z,102763.31
2023-05-19T05:31:45.477Z,102767.94
2023-05-19T05:34:13.266Z,102768.81
2023-05-19T05:36:41.328Z,102762.63
2023-05-19T05:39:09.006Z,102767.69
2023-05-19T05:41:36.722Z,102767.81
2023-05-19T05:44:06.360Z,102762.97
2023-05-19T05:46:34.111Z,102769.19
2023-05-19T05:49:02.399Z,102784.91
2023-05-19T05:51:32.829Z,102773.66
2023-05-19T05:54:02.417Z,102786.22
2023-05-19T05:56:30.614Z,102779.06
2023-05-19T05:58:58.627Z,102775.34
2023-05-19T06:01:28.145Z,102788.97
2023-05-19T06:03:55.820Z,102773.28
2023-05-19T06:06:23.462Z,102772.63
2023-05-19T06:08:51.134Z,102769.16
2023-05-19T06:11:19.661Z,102775.22
2023-05-19T06:13:47.443Z,102777.78
2023-05-19T06:16:15.161Z,102770.47
2023-05-19T06:18:44.318Z,102781.00
2023-05-19T06:21:13.253Z,102779.56
2023-05-19T06:23:41.095Z,102783.88
2023-05-19T06:26:08.770Z,102763.94
2023-05-19T06:28:36.452Z,102763.78
2023-05-19T06:31:04.296Z,102781.31
2023-05-19T06:33:31.983Z,102764.81
2023-05-19T06:36:01.083Z,102761.34
2023-05-19T06:38:28.852Z,102773.25
2023-05-19T06:40:56.681Z,102763.66
2023-05-19T06:43:25.728Z,102768.75
2023-05-19T06:45:53.456Z,102761.75
2023-05-19T06:48:21.136Z,102755.09
2023-05-19T06:50:48.928Z,102767.25
2023-05-19T06:53:18.062Z,102761.19
2023-05-19T06:55:58.075Z,102754.00
2023-05-19T06:58:27.316Z,102743.78
2023-05-19T07:00:55.315Z,102755.44
2023-05-19T07:03:23.459Z,102747.69
2023-05-19T07:05:51.431Z,102730.94
2023-05-19T07:08:20.471Z,102722.94
2023-05-19T07:10:48.257Z,102731.16
2023-05-19T07:13:16.313Z,102722.88
2023-05-19T07:15:44.010Z,102715.34
2023-05-19T07:18:11.709Z,102731.19
2023-05-19T07:20:39.394Z,102728.13
2023-05-19T07:23:07.202Z,102733.94
2023-05-19T07:25:36.330Z,102733.91
2023-05-19T07:28:04.189Z,102730.41
2023-05-19T07:30:32.127Z,102729.03
2023-05-19T07:33:00.070Z,102730.88
2023-05-19T07:35:27.916Z,102722.97
2023-05-19T07:37:55.584Z,102735.59
2023-05-19T07:40:23.231Z,102737.78
2023-05-19T07:42:53.423Z,102734.53
2023-05-19T07:45:21.234Z,102727.75
2023-05-19T07:47:48.920Z,102712.78
2023-05-19T07:50:17.382Z,102705.59
2023-05-19T07:52:45.065Z,102717.03
2023-05-19T07:55:13.542Z,102718.66
2023-05-19T07:57:41.522Z,102722.22
2023-05-19T08:00:11.907Z,102717.22
2023-05-19T08:02:39.760Z,102706.84
2023-05-19T08:05:09.224Z,102711.06
2023-05-19T08:07:37.136Z,102715.59
2023-05-19T08:10:05.388Z,102711.88
2023-05-19T08:12:33.051Z,102714.81
2023-05-19T08:15:01.847Z,102726.00
2023-05-19T08:17:31.149Z,102730.28
2023-05-19T08:19:58.831Z,102716.75
2023-05-19T08:22:26.712Z,102713.91
2023-05-19T08:24:54.411Z,102700.41
2023-05-19T08:27:22.067Z,102711.88
2023-05-19T08:29:49.808Z,102701.81
2023-05-19T08:32:17.975Z,102697.94
2023-05-19T08:34:46.972Z,102688.47
2023-05-19T08:37:14.657Z,102688.38
2023-05-19T08:39:42.371Z,102681.38
2023-05-19T08:42:10.208Z,102694.63
2023-05-19T08:44:40.053Z,102688.56
2023-05-19T08:47:13.871Z,102685.13
2023-05-19T08:49:45.844Z,102690.69
2023-05-19T08:52:25.427Z,102637.75
2023-05-19T08:55:00.820Z,102691.91
2023-05-19T08:57:29.672Z,102673.13
2023-05-19T08:59:59.485Z,102683.94
2023-05-19T09:02:28.392Z,102682.94
2023-05-19T09:04:57.803Z,102672.28
2023-05-19T09:07:27.977Z,102685.38
2023-05-19T09:09:56.440Z,102689.97
2023-05-19T09:12:24.372Z,102691.44
2023-05-19T09:14:52.261Z,102676.84
2023-05-19T09:17:19.908Z,102681.91
2023-05-19T09:19:49.625Z,102691.63
2023-05-19T09:22:19.259Z,102676.72
2023-05-19T09:24:48.468Z,102681.81
2023-05-19T09:27:22.124Z,102678.00
2023-05-19T09:29:49.852Z,102667.91
2023-05-19T09:32:26.201Z,102667.88
2023-05-19T09:34:55.063Z,102667.66
2023-05-19T09:37:24.338Z,102664.31
2023-05-19T09:39:54.465Z,102664.94
2023-05-19T09:42:26.868Z,102677.75
2023-05-19T09:45:01.260Z,102672.00
2023-05-19T09:47:29.173Z,102663.81
2023-05-19T09:49:58.521Z,102664.44
2023-05-19T09:52:27.332Z,102669.75
2023-05-19T09:54:57.928Z,102652.41
2023-05-19T09:57:26.861Z,102649.84
2023-05-19T09:59:57.138Z,102643.66
2023-05-19T10:02:27.064Z,102614.88
2023-05-19T10:04:56.154Z,102655.25
2023-05-19T10:07:25.122Z,102635.69
2023-05-19T10:09:56.584Z,102655.16
2023-05-19T10:12:27.979Z,102626.13
2023-05-19T10:14:56.554Z,102623.13
2023-05-19T10:17:26.122Z,102632.19
2023-05-19T10:19:54.751Z,102615.75
2023-05-19T10:22:22.569Z,102619.72
2023-05-19T10:24:50.538Z,102622.06
2023-05-19T10:27:19.389Z,102619.31
2023-05-19T10:29:51.348Z,102609.50
2023-05-19T10:32:24.153Z,102620.75
2023-05-19T10:35:17.626Z,102612.63
2023-05-19T10:37:51.890Z,102598.34
2023-05-19T10:40:27.492Z,102610.44
2023-05-19T10:43:04.100Z,102600.75
2023-05-19T10:45:37.616Z,102616.03
2023-05-19T10:48:05.680Z,102603.84
2023-05-19T10:50:37.662Z,102621.19
2023-05-19T10:53:05.502Z,102623.63
2023-05-19T10:55:47.528Z,102591.25
2023-05-19T10:58:15.539Z,102618.47
2023-05-19T11:00:44.697Z,102604.66
2023-05-19T11:03:16.240Z,102596.69
2023-05-19T11:05:45.687Z,102612.69
2023-05-19T11:08:13.971Z,102590.34
2023-05-19T11:10:45.327Z,102597.16
2023-05-19T11:13:22.701Z,102577.97
2023-05-19T11:15:52.872Z,102590.06
2023-05-19T11:18:21.299Z,102584.00
2023-05-19T11:20:58.580Z,102575.47
2023-05-19T11:23:26.730Z,102579.47
2023-05-19T11:25:54.766Z,102587.63
2023-05-19T11:28:25.941Z,102590.16
2023-05-19T11:30:57.521Z,102564.78
2023-05-19T11:33:27.217Z,102583.97
2023-05-19T11:35:57.943Z,102554.19
2023-05-19T11:38:26.005Z,102570.13
2023-05-19T11:40:54.422Z,102577.22
2023-05-19T11:43:24.294Z,102571.31
2023-05-19T11:45:52.280Z,102569.63
2023-05-19T11:48:23.684Z,102562.22
2023-05-19T11:50:52.407Z,102569.59
2023-05-19T11:53:20.991Z,102566.91
2023-05-19T11:55:49.785Z,102572.38
2023-05-19T11:58:18.034Z,102559.78
2023-05-19T12:00:47.746Z,102550.22
2023-05-19T12:03:17.440Z,102561.50
2023-05-19T12:05:49.861Z,102555.06
2023-05-19T12:08:18.549Z,102556.09
2023-05-19T12:10:49.163Z,102565.69
2023-05-19T12:13:16.829Z,102554.09
2023-05-19T12:15:44.542Z,102555.25
2023-05-19T12:18:12.394Z,102540.34
2023-05-19T12:20:40.265Z,102561.81
2023-05-19T12:23:09.890Z,102538.59
2023-05-19T12:25:38.334Z,102549.66
2023-05-19T12:28:06.424Z,102532.44
2023-05-19T12:30:35.231Z,102541.84
2023-05-19T12:33:03.890Z,102548.53
2023-05-19T12:35:33.502Z,102540.69
2023-05-19T12:38:04.690Z,102537.31
2023-05-19T12:40:35.129Z,102528.44
2023-05-19T12:43:03.411Z,102524.53
2023-05-19T12:45:35.571Z,102530.09
2023-05-19T12:48:04.750Z,102533.25
2023-05-19T12:50:32.880Z,102520.56
2023-05-19T12:53:00.846Z,102524.72
2023-05-19T12:55:28.554Z,102517.19
2023-05-19T12:57:59.105Z,102533.38
2023-05-19T13:00:28.997Z,102528.91
2023-05-19T13:03:00.278Z,102522.81
2023-05-19T13:05:29.205Z,102530.81
2023-05-19T13:07:58.312Z,102525.31
2023-05-19T13:10:28.013Z,102535.97
2023-05-19T13:12:57.425Z,102535.25
2023-05-19T13:15:27.068Z,102542.53
2023-05-19T13:17:55.541Z,102516.84
2023-05-19T13:20:24.300Z,102523.44
2023-05-19T13:22:52.825Z,102522.50
2023-05-19T13:25:21.339Z,102522.88
2023-05-19T13:27:49.913Z,102520.09
2023-05-19T13:30:19.538Z,102533.03
2023-05-19T13:32:47.276Z,102548.34
2023-05-19T13:35:15.997Z,102539.31
2023-05-19T13:37:43.994Z,102532.13
2023-05-19T13:40:12.591Z,102532.03
2023-05-19T13:42:40.570Z,102540.63
2023-05-19T13:45:09.633Z,102528.25
2023-05-19T13:47:39.759Z,102514.19
2023-05-19T13:50:08.560Z,102525.22
2023-05-19T13:52:36.326Z,102497.72
2023-05-19T13:55:04.169Z,102504.47
2023-05-19T13:57:31.884Z,102464.47
2023-05-19T14:00:02.746Z,102515.16
2023-05-19T14:02:32.094Z,102483.53
2023-05-19T14:05:01.811Z,102526.22
2023-05-19T14:07:30.129Z,102524.25
2023-05-19T14:09:57.800Z,102514.13
2023-05-19T14:12:35.372Z,102512.34
2023-05-19T14:15:09.156Z,102506.03
2023-05-19T14:17:37.565Z,102499.50
2023-05-19T14:20:08.016Z,102504.47
2023-05-19T14:22:35.639Z,102508.50
2023-05-19T14:25:03.830Z,102513.06
2023-05-19T14:27:31.584Z,102497.06
2023-05-19T14:29:59.374Z,102512.03
2023-05-19T14:32:30.082Z,102503.97
2023-05-19T14:34:58.164Z,102503.09
2023-05-19T14:37:28.931Z,102509.50
2023-05-19T14:40:01.344Z,102485.88
2023-05-19T14:42:29.040Z,102502.75
2023-05-19T14:44:56.939Z,102490.47
2023-05-19T14:47:26.201Z,102507.66
2023-05-19T14:49:54.701Z,102515.31
2023-05-19T14:52:22.705Z,102511.19
2023-05-19T14:54:51.807Z,102527.59
2023-05-19T14:57:19.555Z,102519.03
2023-05-19T14:59:47.250Z,102535.34
2023-05-19T15:02:14.924Z,102536.78
2023-05-19T15:04:42.824Z,102534.28
2023-05-19T15:07:11.090Z,102525.63
2023-05-19T15:09:39.135Z,102532.44
2023-05-19T15:12:08.714Z,102535.47
2023-05-19T15:14:36.425Z,102525.91
2023-05-19T15:17:04.156Z,102530.06
2023-05-19T15:19:32.075Z,102505.63
2023-05-19T15:21:59.894Z,102504.75
2023-05-19T15:24:28.112Z,102512.19
2023-05-19T15:26:56.457Z,102520.25
2023-05-19T15:29:25.545Z,102520.44
2023-05-19T15:31:53.385Z,102511.53
2023-05-19T15:34:21.468Z,102514.97
2023-05-19T15:36:49.282Z,102505.75
2023-05-19T15:39:17.040Z,102517.91
2023-05-19T15:41:44.711Z,102533.25
2023-05-19T15:44:12.385Z,102514.19
2023-05-19T15:46:41.524Z,102504.91
2023-05-19T15:49:09.368Z,102518.66
2023-05-19T15:51:40.723Z,102530.56
2023-05-19T15:54:08.410Z,102528.31
2023-05-19T15:56:36.093Z,102510.66
2023-05-19T15:59:03.804Z,102516.50
2023-05-19T16:01:31.658Z,102525.91
2023-05-19T16:04:03.572Z,102508.66
2023-05-19T16:06:31.640Z,102519.53
2023-05-19T16:08:59.404Z,102524.00
2023-05-19T16:11:27.277Z,102520.78
2023-05-19T16:13:54.955Z,102506.13
2023-05-19T16:16:22.697Z,102500.72
2023-05-19T16:18:50.550Z,102505.53
2023-05-19T16:21:19.649Z,102517.16
2023-05-19T16:23:47.553Z,102490.19
2023-05-19T16:26:15.356Z,102513.34
2023-05-19T16:28:43.008Z,102497.13
2023-05-19T16:31:10.797Z,102512.44
2023-05-19T16:33:38.541Z,102503.50
2023-05-19T16:36:06.468Z,102507.94
2023-05-19T16:38:35.488Z,102501.97
2023-05-19T16:41:05.169Z,102497.06
2023-05-19T16:43:33.424Z,102501.50
2023-05-19T16:46:03.404Z,102497.56
2023-05-19T16:48:31.374Z,102499.34
2023-05-19T16:50:59.876Z,102513.41
2023-05-19T16:53:27.802Z,102497.91
2023-05-19T16:55:58.963Z,102488.13
2023-05-19T16:58:28.006Z,102510.50
2023-05-19T17:00:57.736Z,102505.72
2023-05-19T17:03:25.674Z,102489.09
2023-05-19T17:05:53.479Z,102483.78
2023-05-19T17:08:21.218Z,102493.38
2023-05-19T17:10:48.946Z,102484.47
2023-05-19T17:13:17.996Z,102505.84
2023-05-19T17:15:45.673Z,102499.66
2023-05-19T17:18:13.421Z,102499.50
2023-05-19T17:20:41.578Z,102525.13
2023-05-19T17:23:09.341Z,102500.75
2023-05-19T17:25:37.188Z,102492.81
2023-05-19T17:28:05.159Z,102504.13
2023-05-19T17:30:34.695Z,102497.75
2023-05-19T17:33:02.643Z,102510.22
2023-05-19T17:35:30.292Z,102511.84
2023-05-19T17:37:58.021Z,102518.47
2023-05-19T17:40:25.951Z,102510.13
2023-05-19T17:42:53.648Z,102500.25
2023-05-19T17:45:21.511Z,102503.38
2023-05-19T17:47:50.548Z,102528.91
2023-05-19T17:50:18.294Z,102526.69
2023-05-19T17:52:46.478Z,102526.19
2023-05-19T17:55:14.915Z,102511.09
2023-05-19T17:57:45.418Z,102526.19
2023-05-19T18:00:14.272Z,102520.78
2023-05-19T18:02:42.433Z,102540.59
2023-05-19T18:05:12.858Z,102537.94
2023-05-19T18:07:43.149Z,102522.28
2023-05-19T18:10:12.730Z,102515.63
2023-05-19T18:12:40.431Z,102545.56
2023-05-19T18:15:08.887Z,102542.56
2023-05-19T18:17:36.646Z,102537.78
2023-05-19T18:20:05.304Z,102542.66
2023-05-19T18:22:34.349Z,102553.50
2023-05-19T18:25:02.034Z,102539.19
2023-05-19T18:27:29.830Z,102540.84
2023-05-19T18:29:57.673Z,102524.31
2023-05-19T18:32:25.359Z,102525.44
2023-05-19T18:34:53.128Z,102535.03
2023-05-19T18:37:20.815Z,102536.72
2023-05-19T18:39:49.905Z,102538.00
2023-05-19T18:42:17.615Z,102547.13
2023-05-19T18:44:46.764Z,102529.34
2023-05-19T18:47:15.053Z,102513.00
2023-05-19T18:49:43.156Z,102547.22
2023-05-19T18:52:11.097Z,102550.03
2023-05-19T18:54:40.544Z,102539.47
2023-05-19T18:57:09.816Z,102540.13
2023-05-19T18:59:37.520Z,102555.63
2023-05-19T19:02:05.385Z,102557.22
2023-05-19T19:04:33.169Z,102533.56
2023-05-19T19:07:01.322Z,102537.72
2023-05-19T19:09:29.041Z,102540.09
2023-05-19T19:11:56.741Z,102549.16
2023-05-19T19:14:25.723Z,102543.19
2023-05-19T19:16:53.539Z,102546.94
2023-05-19T19:19:23.638Z,102547.34
2023-05-19T19:21:51.585Z,102529.19
2023-05-19T19:24:19.234Z,102548.91
2023-05-19T19:26:46.910Z,102554.66
2023-05-19T19:29:16.656Z,102560.22
2023-05-19T19:31:45.808Z,102547.78
2023-05-19T19:34:13.625Z,102565.75
2023-05-19T19:36:41.314Z,102569.03
2023-05-19T19:39:09.461Z,102581.31
2023-05-19T19:41:37.512Z,102568.75
2023-05-19T19:44:05.600Z,102575.53
2023-05-19T19:46:33.322Z,102587.03
2023-05-19T19:49:02.459Z,102563.03
2023-05-19T19:51:30.263Z,102581.56
2023-05-19T19:53:58.151Z,102585.44
2023-05-19T19:56:27.511Z,102583.03
2023-05-19T19:58:56.870Z,102566.56
2023-05-19T20:01:27.515Z,102573.66
2023-05-19T20:03:55.877Z,102564.56
2023-05-19T20:06:25.160Z,102595.94
2023-05-19T20:08:52.858Z,102597.16
2023-05-19T20:11:22.856Z,102595.66
2023-05-19T20:13:50.593Z,102594.53
2023-05-19T20:16:18.327Z,102595.03
2023-05-19T20:18:46.141Z,102616.22
2023-05-19T20:21:13.909Z,102596.59
2023-05-19T20:23:43.073Z,102602.88
2023-05-19T20:26:13.434Z,102608.91
2023-05-19T20:28:41.605Z,102620.06
2023-05-19T20:31:09.810Z,102614.41
2023-05-19T20:33:37.448Z,102619.59
2023-05-19T20:36:06.553Z,102629.97
2023-05-19T20:38:34.307Z,102627.13
2023-05-19T20:41:03.865Z,102628.25
2023-05-19T20:43:32.810Z,102629.78
2023-05-19T20:46:01.625Z,102612.44
2023-05-19T20:50:57.361Z,102613.88
2023-05-19T20:53:25.108Z,102641.34
2023-05-19T20:55:53.150Z,102624.88
2023-05-19T20:58:22.255Z,102620.38
2023-05-19T21:00:56.790Z,102644.72
2023-05-19T21:03:24.789Z,102623.78
2023-05-19T21:05:52.421Z,102639.19
2023-05-19T21:08:20.128Z,102631.81
2023-05-19T21:10:48.001Z,102649.03
2023-05-19T21:13:15.678Z,102644.75
2023-05-19T21:15:44.712Z,102648.63
2023-05-19T21:18:13.251Z,102646.19
2023-05-19T21:20:42.001Z,102641.63
2023-05-19T21:23:09.710Z,102596.69
2023-05-19T21:25:37.412Z,102642.34
2023-05-19T21:28:06.024Z,102622.59
2023-05-19T21:30:33.997Z,102632.00
2023-05-19T21:33:03.324Z,102647.88
2023-05-19T21:35:31.418Z,102649.31
2023-05-19T21:38:03.878Z,102638.19
2023-05-19T21:40:36.809Z,102644.25
2023-05-19T21:43:05.841Z,102632.91
2023-05-19T21:45:33.538Z,102623.00
2023-05-19T21:48:01.258Z,102634.91
2023-05-19T21:50:36.548Z,102637.41
2023-05-19T21:53:04.311Z,102631.81
2023-05-19T21:55:31.985Z,102639.34
2023-05-19T21:58:01.654Z,102642.75
2023-05-19T22:00:30.324Z,102633.38
2023-05-19T22:02:58.139Z,102637.72
2023-05-19T22:05:25.896Z,102639.22
2023-05-19T22:07:54.915Z,102648.94
2023-05-19T22:10:22.876Z,102636.69
2023-05-19T22:12:50.681Z,102639.28
2023-05-19T22:15:18.500Z,102640.78
2023-05-19T22:17:46.232Z,102623.59
2023-05-19T22:20:13.924Z,102631.03
2023-05-19T22:22:42.048Z,102640.41
2023-05-19T22:25:11.209Z,102631.69
2023-05-19T22:27:38.892Z,102641.03
2023-05-19T22:30:08.747Z,102630.69
2023-05-19T22:32:36.990Z,102634.38
2023-05-19T22:35:06.548Z,102632.41
2023-05-19T22:37:34.486Z,102642.66
2023-05-19T22:40:02.138Z,102628.13
2023-05-19T22:42:31.344Z,102622.34
2023-05-19T22:44:59.122Z,102636.59
2023-05-19T22:47:26.961Z,102615.53
2023-05-19T22:49:55.625Z,102636.28
2023-05-19T22:52:24.782Z,102627.03
2023-05-19T22:54:52.445Z,102631.72
2023-05-19T22:57:20.211Z,102636.06
2023-05-19T22:59:49.250Z,102620.56
2023-05-19T23:02:16.887Z,102639.28
2023-05-19T23:04:44.539Z,102622.38
2023-05-19T23:07:12.232Z,102623.22
2023-05-19T23:09:39.923Z,102625.06
2023-05-19T23:12:08.191Z,102634.50
2023-05-19T23:14:36.140Z,102652.94
2023-05-19T23:17:05.502Z,102650.16
2023-05-19T23:19:34.953Z,102639.34
2023-05-19T23:22:02.591Z,102646.72
2023-05-19T23:24:30.478Z,102644.56
2023-05-19T23:26:58.267Z,102634.56
2023-05-19T23:29:26.206Z,102648.81
2023-05-19T23:31:54.023Z,102649.13
2023-05-19T23:34:23.171Z,102644.09
2023-05-19T23:36:50.864Z,102638.91
2023-05-19T23:39:18.543Z,102654.31
2023-05-19T23:41:46.269Z,102648.50
2023-05-19T23:44:13.896Z,102638.13
2023-05-19T23:46:41.904Z,102655.88
2023-05-19T23:49:09.649Z,102646.97
2023-05-19T23:51:38.758Z,102647.72
2023-05-19T23:54:06.494Z,102641.50
2023-05-19T23:56:34.203Z,102643.16
2023-05-19T23:59:01.888Z,102646.69
